createdAt,value
2023-05-09T00:00:53.890Z,102286.77
2023-05-09T00:03:21.258Z,102286.41
2023-05-09T00:05:48.486Z,102291.09
2023-05-09T00:08:15.452Z,102295.00
2023-05-09T00:10:42.662Z,102298.81
2023-05-09T00:13:09.796Z,102301.10
2023-05-09T00:15:36.782Z,102301.10
2023-05-09T00:18:03.931Z,102301.13
2023-05-09T00:20:30.959Z,102302.57
2023-05-09T00:22:58.023Z,102305.37
2023-05-09T00:25:25.228Z,102309.42
2023-05-09T00:27:52.171Z,102312.73
2023-05-09T00:30:19.225Z,102316.20
2023-05-09T00:32:46.184Z,102319.31
2023-05-09T00:35:13.495Z,102318.39
2023-05-09T00:37:40.750Z,102322.20
2023-05-09T00:40:09.351Z,102328.13
2023-05-09T00:42:36.654Z,102324.23
2023-05-09T00:45:03.833Z,102320.16
2023-05-09T00:47:30.847Z,102315.41
2023-05-09T00:49:58.338Z,102318.33
2023-05-09T00:52:26.152Z,102319.51
2023-05-09T00:54:53.981Z,102321.74
2023-05-09T00:57:21.300Z,102322.41
2023-05-09T00:59:48.805Z,102322.54
2023-05-09T01:02:17.321Z,102324.45
2023-05-09T01:04:45.733Z,102324.81
2023-05-09T01:07:26.955Z,102323.40
2023-05-09T01:10:00.045Z,102326.38
2023-05-09T01:12:47.371Z,102328.11
2023-05-09T01:15:21.804Z,102326.15
2023-05-09T01:18:39.843Z,102328.55
2023-05-09T01:21:11.898Z,102325.06
2023-05-09T01:23:44.660Z,102325.70
2023-05-09T01:26:33.303Z,102322.05
2023-05-09T01:29:21.409Z,102323.12
2023-05-09T01:31:49.320Z,102326.48
2023-05-09T01:34:16.707Z,102325.48
2023-05-09T01:36:43.708Z,102326.20
2023-05-09T01:39:13.903Z,102326.40
2023-05-09T01:41:40.927Z,102323.80
2023-05-09T01:44:09.960Z,102324.01
2023-05-09T01:46:37.902Z,102324.35
2023-05-09T01:49:05.810Z,102326.25
2023-05-09T01:51:32.825Z,102324.46
2023-05-09T01:53:59.806Z,102326.70
2023-05-09T01:56:26.861Z,102324.23
2023-05-09T01:58:54.401Z,102324.21
2023-05-09T02:01:21.456Z,102325.27
2023-05-09T02:03:50.780Z,102329.27
2023-05-09T02:06:18.813Z,102330.51
2023-05-09T02:08:45.802Z,102333.48
2023-05-09T02:11:12.934Z,102333.31
2023-05-09T02:13:39.906Z,102330.73
2023-05-09T02:16:07.948Z,102329.04
2023-05-09T02:18:37.401Z,102329.13
2023-05-09T02:21:04.460Z,102330.89
2023-05-09T02:23:31.536Z,102331.99
2023-05-09T02:25:58.551Z,102332.73
2023-05-09T02:28:25.845Z,102333.83
2023-05-09T02:30:52.808Z,102333.70
2023-05-09T02:33:19.795Z,102336.33
2023-05-09T02:35:46.865Z,102336.65
2023-05-09T02:38:13.889Z,102333.99
2023-05-09T02:40:42.572Z,102334.13
2023-05-09T02:43:09.928Z,102335.88
2023-05-09T02:45:37.199Z,102333.40
2023-05-09T02:48:06.850Z,102336.56
2023-05-09T02:50:35.607Z,102334.52
2023-05-09T02:53:02.554Z,102338.20
2023-05-09T02:55:29.548Z,102337.50
2023-05-09T02:58:09.262Z,102342.55
2023-05-09T03:00:40.327Z,102342.55
2023-05-09T03:03:08.130Z,102340.63
2023-05-09T03:05:35.148Z,102343.42
2023-05-09T03:08:02.228Z,102348.15
2023-05-09T03:10:29.230Z,102347.80
2023-05-09T03:12:56.276Z,102354.08
2023-05-09T03:15:23.443Z,102355.63
2023-05-09T03:17:50.721Z,102352.11
2023-05-09T03:20:18.075Z,102351.90
2023-05-09T03:22:45.043Z,102350.83
2023-05-09T03:25:12.232Z,102353.79
2023-05-09T03:27:39.324Z,102352.90
2023-05-09T03:30:09.125Z,102353.21
2023-05-09T03:32:36.339Z,102357.36
2023-05-09T03:35:03.606Z,102357.67
2023-05-09T03:37:30.797Z,102358.14
2023-05-09T03:39:57.743Z,102359.63
2023-05-09T03:42:24.977Z,102362.32
2023-05-09T03:44:53.683Z,102365.36
2023-05-09T03:47:21.609Z,102364.33
2023-05-09T03:49:49.186Z,102368.27
2023-05-09T03:52:17.439Z,102370.10
2023-05-09T03:54:45.669Z,102369.82
2023-05-09T03:57:13.205Z,102374.33
2023-05-09T03:59:40.771Z,102372.69
2023-05-09T04:02:08.041Z,102377.52
2023-05-09T04:04:35.035Z,102384.09
2023-05-09T04:07:02.617Z,102383.63
2023-05-09T04:09:30.362Z,102386.31
2023-05-09T04:11:57.345Z,102387.23
2023-05-09T04:14:25.036Z,102384.31
2023-05-09T04:16:52.294Z,102383.49
2023-05-09T04:19:20.281Z,102385.83
2023-05-09T04:21:47.290Z,102387.63
2023-05-09T04:24:14.338Z,102388.86
2023-05-09T04:26:43.346Z,102391.84
2023-05-09T04:29:12.835Z,102397.59
2023-05-09T04:31:40.421Z,102396.88
2023-05-09T04:34:08.233Z,102396.83
2023-05-09T04:36:35.809Z,102401.52
2023-05-09T04:39:05.300Z,102397.98
2023-05-09T04:41:33.123Z,102399.83
2023-05-09T04:44:00.089Z,102398.88
2023-05-09T04:46:27.344Z,102397.66
2023-05-09T04:48:54.557Z,102393.98
2023-05-09T04:51:21.627Z,102390.30
2023-05-09T04:53:48.640Z,102395.00
2023-05-09T04:56:16.588Z,102395.52
2023-05-09T04:58:44.286Z,102394.46
2023-05-09T05:01:11.788Z,102400.55
2023-05-09T05:03:39.458Z,102402.28
2023-05-09T05:06:06.771Z,102403.99
2023-05-09T05:08:33.992Z,102402.72
2023-05-09T05:11:01.126Z,102406.50
2023-05-09T05:13:28.369Z,102408.35
2023-05-09T05:15:58.985Z,102405.31
2023-05-09T05:18:26.201Z,102400.17
2023-05-09T05:20:53.716Z,102408.14
2023-05-09T05:23:21.001Z,102411.73
2023-05-09T05:25:49.427Z,102409.86
2023-05-09T05:28:17.209Z,102409.48
2023-05-09T05:30:44.621Z,102404.16
2023-05-09T05:33:11.692Z,102404.01
2023-05-09T05:35:38.985Z,102405.99
2023-05-09T05:38:05.941Z,102408.85
2023-05-09T05:40:33.053Z,102412.02
2023-05-09T05:43:01.969Z,102408.92
2023-05-09T05:45:31.122Z,102404.69
2023-05-09T05:47:58.459Z,102406.16
2023-05-09T05:50:25.512Z,102410.33
2023-05-09T05:52:53.065Z,102412.67
2023-05-09T05:55:20.138Z,102412.48
2023-05-09T05:57:47.852Z,102410.53
2023-05-09T06:00:16.527Z,102413.36
2023-05-09T06:02:49.695Z,102404.88
2023-05-09T06:05:22.211Z,102405.08
2023-05-09T06:07:50.379Z,102401.36
2023-05-09T06:10:17.361Z,102399.95
2023-05-09T06:12:45.112Z,102401.24
2023-05-09T06:15:12.591Z,102402.48
2023-05-09T06:17:42.009Z,102403.55
2023-05-09T06:20:09.212Z,102409.10
2023-05-09T06:22:36.226Z,102409.57
2023-05-09T06:25:03.499Z,102411.11
2023-05-09T06:27:30.546Z,102411.80
2023-05-09T06:29:57.603Z,102411.64
2023-05-09T06:32:25.221Z,102409.73
2023-05-09T06:34:52.876Z,102407.98
2023-05-09T06:37:19.823Z,102408.28
2023-05-09T06:39:46.764Z,102403.96
2023-05-09T06:42:13.775Z,102406.45
2023-05-09T06:44:41.208Z,102407.53
2023-05-09T06:47:08.230Z,102409.09
2023-05-09T06:49:35.209Z,102409.33
2023-05-09T06:52:02.267Z,102409.44
2023-05-09T06:54:29.265Z,102410.88
2023-05-09T06:56:56.210Z,102408.23
2023-05-09T06:59:23.156Z,102412.98
2023-05-09T07:01:50.233Z,102411.70
2023-05-09T07:04:17.216Z,102413.94
2023-05-09T07:06:44.271Z,102407.58
2023-05-09T07:09:11.288Z,102408.39
2023-05-09T07:11:38.263Z,102406.17
2023-05-09T07:14:05.534Z,102402.35
2023-05-09T07:16:34.565Z,102405.14
2023-05-09T07:19:02.922Z,102398.79
2023-05-09T07:21:29.881Z,102397.06
2023-05-09T07:23:56.813Z,102395.04
2023-05-09T07:26:23.797Z,102396.42
2023-05-09T07:28:50.895Z,102395.71
2023-05-09T07:31:17.964Z,102399.23
2023-05-09T07:33:44.938Z,102397.16
2023-05-09T07:36:13.835Z,102399.35
2023-05-09T07:38:40.823Z,102399.11
2023-05-09T07:41:07.829Z,102400.50
2023-05-09T07:43:35.016Z,102395.52
2023-05-09T07:46:02.238Z,102394.48
2023-05-09T07:48:29.282Z,102395.79
2023-05-09T07:50:56.286Z,102397.00
2023-05-09T07:53:23.238Z,102396.18
2023-05-09T07:55:50.412Z,102391.65
2023-05-09T07:58:17.416Z,102394.88
2023-05-09T08:00:44.403Z,102391.41
2023-05-09T08:03:11.525Z,102389.44
2023-05-09T08:05:38.682Z,102388.28
2023-05-09T08:08:05.634Z,102387.16
2023-05-09T08:10:33.795Z,102387.73
2023-05-09T08:13:00.879Z,102388.67
2023-05-09T08:15:27.907Z,102388.60
2023-05-09T08:17:54.940Z,102385.55
2023-05-09T08:20:21.943Z,102386.41
2023-05-09T08:22:48.888Z,102384.43
2023-05-09T08:25:18.339Z,102380.09
2023-05-09T08:27:45.383Z,102380.28
2023-05-09T08:30:12.919Z,102381.13
2023-05-09T08:32:39.893Z,102375.42
2023-05-09T08:35:09.050Z,102377.73
2023-05-09T08:37:36.779Z,102378.63
2023-05-09T08:40:07.692Z,102378.63
2023-05-09T08:42:36.711Z,102379.70
2023-05-09T08:45:10.807Z,102379.92
2023-05-09T08:47:38.274Z,102382.02
2023-05-09T08:50:06.232Z,102379.06
2023-05-09T08:52:33.803Z,102381.00
2023-05-09T08:55:01.507Z,102378.21
2023-05-09T08:57:28.538Z,102379.45
2023-05-09T08:59:55.601Z,102379.09
2023-05-09T09:02:22.664Z,102376.59
2023-05-09T09:04:49.710Z,102378.15
2023-05-09T09:07:16.862Z,102376.36
2023-05-09T09:09:47.597Z,102374.09
2023-05-09T09:12:15.864Z,102376.08
2023-05-09T09:14:47.011Z,102376.02
2023-05-09T09:17:16.328Z,102379.55
2023-05-09T09:19:44.190Z,102378.45
2023-05-09T09:22:13.367Z,102374.70
2023-05-09T09:24:40.323Z,102373.23
2023-05-09T09:27:07.345Z,102380.15
2023-05-09T09:29:34.568Z,102382.30
2023-05-09T09:32:06.079Z,102376.07
2023-05-09T09:34:33.207Z,102374.95
2023-05-09T09:37:00.169Z,102375.29
2023-05-09T09:39:27.162Z,102376.15
2023-05-09T09:41:54.227Z,102373.39
2023-05-09T09:44:22.261Z,102378.45
2023-05-09T09:46:53.625Z,102380.04
2023-05-09T09:49:22.082Z,102373.95
2023-05-09T09:51:53.064Z,102369.84
2023-05-09T09:54:20.207Z,102374.38
2023-05-09T09:56:51.893Z,102378.88
2023-05-09T09:59:25.040Z,102374.84
2023-05-09T10:02:05.863Z,102377.38
2023-05-09T10:04:35.560Z,102381.73
2023-05-09T10:07:05.284Z,102379.77
2023-05-09T10:09:32.704Z,102382.95
2023-05-09T10:12:04.305Z,102382.11
2023-05-09T10:14:34.841Z,102377.27
2023-05-09T10:17:03.251Z,102378.02
2023-05-09T10:19:30.609Z,102374.38
2023-05-09T10:22:05.364Z,102373.17
2023-05-09T10:25:14.372Z,102373.38
2023-05-09T10:27:41.988Z,102371.10
2023-05-09T10:30:12.520Z,102367.93
2023-05-09T10:32:43.742Z,102367.63
2023-05-09T10:35:11.153Z,102369.63
2023-05-09T10:37:38.093Z,102370.64
2023-05-09T10:40:05.718Z,102372.23
2023-05-09T10:42:32.726Z,102370.98
2023-05-09T10:44:59.723Z,102367.48
2023-05-09T10:47:28.122Z,102365.65
2023-05-09T10:49:55.121Z,102364.95
2023-05-09T10:52:22.956Z,102363.36
2023-05-09T10:55:03.676Z,102363.20
2023-05-09T10:57:31.605Z,102361.78
2023-05-09T10:59:59.225Z,102360.98
2023-05-09T11:02:35.227Z,102359.60
2023-05-09T11:05:16.399Z,102357.07
2023-05-09T11:07:43.640Z,102361.92
2023-05-09T11:10:14.857Z,102360.98
2023-05-09T11:12:58.385Z,102364.41
2023-05-09T11:15:26.706Z,102361.75
2023-05-09T11:18:13.073Z,102361.91
2023-05-09T11:20:43.543Z,102364.91
2023-05-09T11:23:13.756Z,102363.40
2023-05-09T11:25:41.428Z,102364.34
2023-05-09T11:28:08.571Z,102366.33
2023-05-09T11:30:38.678Z,102361.27
2023-05-09T11:33:07.127Z,102364.64
2023-05-09T11:35:34.664Z,102362.92
2023-05-09T11:38:05.767Z,102363.08
2023-05-09T11:40:33.768Z,102362.52
2023-05-09T11:43:01.139Z,102363.05
2023-05-09T11:45:32.548Z,102364.37
2023-05-09T11:47:59.542Z,102365.77
2023-05-09T11:50:26.718Z,102365.17
2023-05-09T11:52:53.941Z,102360.90
2023-05-09T11:55:25.847Z,102359.34
2023-05-09T11:57:53.854Z,102352.41
2023-05-09T12:00:22.420Z,102348.04
2023-05-09T12:02:51.280Z,102343.37
2023-05-09T12:05:19.678Z,102342.48
2023-05-09T12:07:47.209Z,102340.66
2023-05-09T12:10:15.793Z,102336.59
2023-05-09T12:12:44.751Z,102330.20
2023-05-09T12:15:13.717Z,102336.95
2023-05-09T12:17:44.853Z,102334.75
2023-05-09T12:20:12.328Z,102333.23
2023-05-09T12:22:39.669Z,102329.35
2023-05-09T12:25:08.456Z,102327.13
2023-05-09T12:27:36.042Z,102327.40
2023-05-09T12:30:09.949Z,102326.08
2023-05-09T12:32:37.965Z,102327.16
2023-05-09T12:35:05.248Z,102319.45
2023-05-09T12:37:35.083Z,102318.37
2023-05-09T12:40:07.160Z,102314.86
2023-05-09T12:42:35.085Z,102317.00
2023-05-09T12:45:04.568Z,102314.11
2023-05-09T12:47:32.044Z,102316.90
2023-05-09T12:49:59.666Z,102314.38
2023-05-09T12:52:39.741Z,102314.95
2023-05-09T12:55:14.298Z,102313.31
2023-05-09T12:57:42.049Z,102312.21
2023-05-09T13:00:10.010Z,102315.01
2023-05-09T13:02:39.052Z,102312.73
2023-05-09T13:05:10.914Z,102307.92
2023-05-09T13:07:44.739Z,102312.52
2023-05-09T13:10:21.632Z,102309.77
2023-05-09T13:12:49.355Z,102308.64
2023-05-09T13:15:16.963Z,102309.09
2023-05-09T13:17:44.520Z,102309.94
2023-05-09T13:20:11.593Z,102308.10
2023-05-09T13:22:38.651Z,102307.56
2023-05-09T13:25:06.241Z,102306.65
2023-05-09T13:27:33.342Z,102310.48
2023-05-09T13:30:00.606Z,102306.86
2023-05-09T13:32:27.624Z,102306.27
2023-05-09T13:34:54.640Z,102307.05
2023-05-09T13:37:21.894Z,102310.42
2023-05-09T13:39:49.088Z,102308.48
2023-05-09T13:42:19.025Z,102306.30
2023-05-09T13:44:46.444Z,102305.21
2023-05-09T13:47:13.399Z,102304.38
2023-05-09T13:49:40.356Z,102305.78
2023-05-09T13:52:08.418Z,102308.40
2023-05-09T13:54:35.614Z,102305.71
2023-05-09T13:57:03.879Z,102305.11
2023-05-09T13:59:31.696Z,102306.67
2023-05-09T14:02:00.155Z,102309.89
2023-05-09T14:04:28.081Z,102310.40
2023-05-09T14:06:55.667Z,102309.89
2023-05-09T14:09:22.985Z,102310.08
2023-05-09T14:11:53.317Z,102307.88
2023-05-09T14:14:21.140Z,102307.94
2023-05-09T14:16:48.354Z,102310.36
2023-05-09T14:19:15.635Z,102309.63
2023-05-09T14:21:43.185Z,102311.75
2023-05-09T14:24:11.357Z,102308.95
2023-05-09T14:26:39.507Z,102311.57
2023-05-09T14:29:06.581Z,102309.06
2023-05-09T14:31:33.705Z,102308.09
2023-05-09T14:34:00.855Z,102309.88
2023-05-09T14:36:28.883Z,102307.86
2023-05-09T14:38:55.863Z,102301.91
2023-05-09T14:41:23.030Z,102301.52
2023-05-09T14:43:50.104Z,102304.80
2023-05-09T14:46:17.188Z,102306.92
2023-05-09T14:48:44.209Z,102307.74
2023-05-09T14:51:11.976Z,102303.70
2023-05-09T14:53:42.165Z,102307.96
2023-05-09T14:56:09.578Z,102309.16
2023-05-09T14:58:36.637Z,102312.71
2023-05-09T15:01:04.479Z,102311.38
2023-05-09T15:03:31.659Z,102314.59
2023-05-09T15:05:58.864Z,102311.95
2023-05-09T15:08:26.166Z,102311.42
2023-05-09T15:10:53.186Z,102315.31
2023-05-09T15:13:20.189Z,102315.05
2023-05-09T15:15:47.351Z,102319.27
2023-05-09T15:18:16.653Z,102315.89
2023-05-09T15:20:43.740Z,102317.98
2023-05-09T15:23:12.118Z,102318.95
2023-05-09T15:25:41.258Z,102316.17
2023-05-09T15:28:08.242Z,102319.48
2023-05-09T15:30:38.256Z,102322.23
2023-05-09T15:33:05.639Z,102321.38
2023-05-09T15:35:32.811Z,102317.99
2023-05-09T15:38:00.116Z,102324.69
2023-05-09T15:40:28.182Z,102322.13
2023-05-09T15:42:55.128Z,102329.46
2023-05-09T15:45:22.242Z,102326.41
2023-05-09T15:47:49.325Z,102325.19
2023-05-09T15:50:16.924Z,102325.73
2023-05-09T15:52:44.044Z,102325.67
2023-05-09T15:55:13.080Z,102323.23
2023-05-09T15:57:40.160Z,102320.42
2023-05-09T16:00:07.649Z,102317.41
2023-05-09T16:02:39.712Z,102319.95
2023-05-09T16:05:06.949Z,102320.42
2023-05-09T16:07:35.807Z,102318.13
2023-05-09T16:10:03.158Z,102316.85
2023-05-09T16:12:32.898Z,102313.11
2023-05-09T16:15:00.219Z,102313.60
2023-05-09T16:17:27.458Z,102313.86
2023-05-09T16:19:55.323Z,102313.63
2023-05-09T16:22:22.290Z,102309.52
2023-05-09T16:24:49.347Z,102307.88
2023-05-09T16:27:16.691Z,102307.61
2023-05-09T16:29:43.766Z,102311.94
2023-05-09T16:32:10.835Z,102310.48
2023-05-09T16:34:37.959Z,102305.64
2023-05-09T16:37:04.951Z,102305.71
2023-05-09T16:39:32.456Z,102304.35
2023-05-09T16:41:59.724Z,102299.35
2023-05-09T16:44:26.793Z,102300.41
2023-05-09T16:46:53.882Z,102305.75
2023-05-09T16:49:20.834Z,102302.67
2023-05-09T16:51:47.817Z,102306.11
2023-05-09T16:54:15.021Z,102307.55
2023-05-09T16:56:42.477Z,102307.27
2023-05-09T16:59:09.568Z,102308.02
2023-05-09T17:01:36.588Z,102313.67
2023-05-09T17:04:06.757Z,102316.55
2023-05-09T17:06:36.821Z,102318.00
2023-05-09T17:09:03.972Z,102322.05
2023-05-09T17:11:31.018Z,102325.95
2023-05-09T17:13:57.999Z,102323.34
2023-05-09T17:16:24.994Z,102321.81
2023-05-09T17:18:52.216Z,102326.95
2023-05-09T17:21:20.401Z,102331.55
2023-05-09T17:23:47.426Z,102334.23
2023-05-09T17:26:14.510Z,102332.02
2023-05-09T17:28:41.464Z,102328.80
2023-05-09T17:31:08.561Z,102331.94
2023-05-09T17:33:35.597Z,102332.52
2023-05-09T17:36:02.732Z,102336.25
2023-05-09T17:38:30.339Z,102331.23
2023-05-09T17:40:57.591Z,102334.06
2023-05-09T17:43:24.701Z,102334.27
2023-05-09T17:45:52.580Z,102334.33
2023-05-09T17:48:20.064Z,102332.98
2023-05-09T17:50:47.039Z,102336.16
2023-05-09T17:53:14.147Z,102335.87
2023-05-09T17:55:41.621Z,102343.27
2023-05-09T17:58:08.833Z,102344.89
2023-05-09T18:00:35.904Z,102345.84
2023-05-09T18:03:04.144Z,102346.42
2023-05-09T18:05:31.234Z,102351.04
2023-05-09T18:08:00.908Z,102352.48
2023-05-09T18:10:28.946Z,102354.09
2023-05-09T18:12:56.198Z,102355.39
2023-05-09T18:15:24.073Z,102357.60
2023-05-09T18:17:51.218Z,102360.20
2023-05-09T18:20:18.576Z,102361.66
2023-05-09T18:22:46.720Z,102359.96
2023-05-09T18:25:13.906Z,102356.71
2023-05-09T18:27:40.893Z,102357.10
2023-05-09T18:30:08.512Z,102356.80
2023-05-09T18:32:35.604Z,102355.66
2023-05-09T18:35:02.682Z,102356.60
2023-05-09T18:37:29.708Z,102355.41
2023-05-09T18:39:56.733Z,102354.59
2023-05-09T18:42:23.707Z,102355.83
2023-05-09T18:44:51.266Z,102354.79
2023-05-09T18:47:18.352Z,102359.51
2023-05-09T18:49:45.435Z,102360.17
2023-05-09T18:52:13.109Z,102362.59
2023-05-09T18:54:41.332Z,102363.09
2023-05-09T18:57:08.755Z,102358.30
2023-05-09T18:59:35.696Z,102356.42
2023-05-09T19:02:02.777Z,102359.97
2023-05-09T19:04:30.008Z,102357.50
2023-05-09T19:06:59.367Z,102355.80
2023-05-09T19:09:26.392Z,102352.35
2023-05-09T19:11:53.910Z,102353.98
2023-05-09T19:14:21.021Z,102354.06
2023-05-09T19:16:48.365Z,102349.55
2023-05-09T19:19:15.903Z,102348.31
2023-05-09T19:21:43.172Z,102349.30
2023-05-09T19:24:10.263Z,102347.79
2023-05-09T19:26:37.337Z,102348.18
2023-05-09T19:29:08.218Z,102345.31
2023-05-09T19:31:36.606Z,102347.77
2023-05-09T19:34:03.713Z,102349.96
2023-05-09T19:36:31.153Z,102351.73
2023-05-09T19:38:58.195Z,102356.48
2023-05-09T19:41:25.193Z,102353.70
2023-05-09T19:43:52.297Z,102359.55
2023-05-09T19:46:19.491Z,102361.95
2023-05-09T19:48:46.627Z,102360.02
2023-05-09T19:51:15.363Z,102361.77
2023-05-09T19:53:42.376Z,102358.20
2023-05-09T19:56:09.687Z,102355.35
2023-05-09T19:58:36.709Z,102357.16
2023-05-09T20:01:05.336Z,102358.27
2023-05-09T20:03:33.632Z,102357.67
2023-05-09T20:06:01.211Z,102358.42
2023-05-09T20:08:28.290Z,102360.79
2023-05-09T20:10:55.250Z,102359.09
2023-05-09T20:13:22.314Z,102356.84
2023-05-09T20:15:49.919Z,102359.48
2023-05-09T20:18:16.941Z,102358.58
2023-05-09T20:20:43.960Z,102355.81
2023-05-09T20:23:10.999Z,102354.10
2023-05-09T20:25:37.978Z,102349.59
2023-05-09T20:28:05.075Z,102349.98
2023-05-09T20:30:32.155Z,102352.42
2023-05-09T20:32:59.192Z,102352.45
2023-05-09T20:35:26.269Z,102348.64
2023-05-09T20:37:53.226Z,102347.61
2023-05-09T20:40:20.514Z,102349.89
2023-05-09T20:42:47.461Z,102350.41
2023-05-09T20:45:14.435Z,102352.33
2023-05-09T20:47:41.488Z,102354.58
2023-05-09T20:50:08.808Z,102351.42
2023-05-09T20:52:35.894Z,102350.19
2023-05-09T20:55:03.152Z,102353.52
2023-05-09T20:57:30.135Z,102351.64
2023-05-09T20:59:57.118Z,102350.62
2023-05-09T21:02:24.178Z,102350.68
2023-05-09T21:04:51.273Z,102348.27
2023-05-09T21:07:21.090Z,102347.80
2023-05-09T21:09:48.244Z,102348.55
2023-05-09T21:12:15.407Z,102348.55
2023-05-09T21:14:42.422Z,102347.73
2023-05-09T21:17:09.766Z,102345.30
2023-05-09T21:19:36.816Z,102343.57
2023-05-09T21:22:03.779Z,102343.62
2023-05-09T21:24:30.821Z,102345.23
2023-05-09T21:26:58.037Z,102341.64
2023-05-09T21:29:25.203Z,102339.08
2023-05-09T21:31:52.176Z,102339.98
2023-05-09T21:34:19.139Z,102341.79
2023-05-09T21:36:46.111Z,102339.90
2023-05-09T21:39:13.121Z,102340.60
2023-05-09T21:41:40.344Z,102340.30
2023-05-09T21:44:11.435Z,102337.17
2023-05-09T21:46:38.604Z,102333.20
2023-05-09T21:49:05.847Z,102333.08
2023-05-09T21:51:33.595Z,102329.66
2023-05-09T21:54:01.539Z,102322.56
2023-05-09T21:56:28.493Z,102321.38
2023-05-09T21:58:55.600Z,102318.80
2023-05-09T22:01:22.647Z,102313.92
2023-05-09T22:03:49.701Z,102317.25
2023-05-09T22:06:16.831Z,102321.98
2023-05-09T22:08:43.800Z,102321.14
2023-05-09T22:11:12.644Z,102322.36
2023-05-09T22:13:40.372Z,102320.45
2023-05-09T22:16:07.649Z,102321.17
2023-05-09T22:18:34.869Z,102318.77
2023-05-09T22:21:01.819Z,102317.45
2023-05-09T22:23:28.800Z,102316.11
2023-05-09T22:25:55.756Z,102314.40
2023-05-09T22:28:22.725Z,102311.31
2023-05-09T22:30:49.967Z,102308.70
2023-05-09T22:33:16.961Z,102306.27
2023-05-09T22:35:43.912Z,102299.30
2023-05-09T22:38:10.844Z,102299.67
2023-05-09T22:40:37.800Z,102300.74
2023-05-09T22:43:04.841Z,102302.36
2023-05-09T22:45:31.875Z,102298.73
2023-05-09T22:47:58.916Z,102296.52
2023-05-09T22:50:25.921Z,102296.77
2023-05-09T22:52:52.971Z,102296.63
2023-05-09T22:55:20.067Z,102292.64
2023-05-09T22:57:47.562Z,102289.33
2023-05-09T23:00:15.369Z,102288.98
2023-05-09T23:02:42.676Z,102285.30
2023-05-09T23:05:09.912Z,102286.15
2023-05-09T23:07:37.225Z,102283.75
2023-05-09T23:10:04.989Z,102283.23
2023-05-09T23:12:31.957Z,102276.40
2023-05-09T23:14:58.929Z,102274.35
2023-05-09T23:17:26.281Z,102276.66
2023-05-09T23:19:53.390Z,102273.20
2023-05-09T23:22:20.362Z,102271.65
2023-05-09T23:24:47.385Z,102270.61
2023-05-09T23:27:14.658Z,102268.86
2023-05-09T23:29:41.605Z,102267.95
2023-05-09T23:32:08.690Z,102261.67
2023-05-09T23:34:36.791Z,102263.05
2023-05-09T23:37:04.438Z,102262.69
2023-05-09T23:39:31.695Z,102260.77
2023-05-09T23:41:58.670Z,102257.10
2023-05-09T23:44:25.922Z,102258.87
2023-05-09T23:46:52.917Z,102259.40
2023-05-09T23:49:19.895Z,102258.56
2023-05-09T23:51:46.935Z,102254.41
2023-05-09T23:54:13.909Z,102253.01
2023-05-09T23:56:41.056Z,102252.13
2023-05-09T23:59:08.108Z,102251.41
